Weather at Smith Barney Tower Helipad

Public forecast

Using degrees Fahrenheit for public forecast. Weather courtesy of forecast.io.

Closest aviation weather report (METAR) to Smith Barney Tower Helipad

Closest report is Miramar Marine Corps Air Station - Mitscher Field, 3.5 nm (6.5 km) E.

2024/07/19 05:55 (retrieved 55 minutes ago)

KNKX 190555Z 27003KT 9SM CLR 18/16 A3000 RMK AO2 SLP153 T01830156 10244 20178 53012

Closest aviation forecast (TAF) to Smith Barney Tower Helipad

Forecast is more than 6 hours old.

Closest forecast is Miramar Marine Corps Air Station - Mitscher Field, 3.5 nm (6.5 km) E.

2024/07/18 21:07 Ammendment (retrieved 10 hours ago)

TAF AMD KNKX 1821/1921 25009KT 9999 FEW010 FEW050CB QNH2998INS BECMG 1902/1904 VRB03KT 8000 BR BKN010 QNH2996INS FM191430 VRB03KT 9000 BR SCT010 QNH2998INS FM191600 32005KT 9999 NSW SCT012 QNH2998INS T26/1822Z T18/1913Z